Time,TemperatureF,DewpointF,PressureIn,WindDirection,WindDirectionDegrees,WindSpeedMPH,WindSpeedGustMPH,Humidity,HourlyPrecipIn,Conditions,Clouds,dailyrainin,SoftwareType,DateUTC
2013-04-23 00:02:00,16.0,11.0,-100.00,NW,305,3.0,4.0,79,-99.99,,,-99.99,,2013-04-23 05:02:00,
2013-04-23 00:12:00,16.0,11.0,-100.00,NW,305,3.0,4.0,79,-99.99,,,-99.99,,2013-04-23 05:12:00,
2013-04-23 00:22:00,16.0,11.0,-100.00,WNW,300,3.0,4.0,79,-99.99,,,-99.99,,2013-04-23 05:22:00,
2013-04-23 00:32:00,15.0,10.0,-100.00,NW,305,2.0,2.0,81,-99.99,,,-99.99,,2013-04-23 05:32:00,
2013-04-23 00:42:00,15.0,10.0,-100.00,NW,305,2.0,2.0,81,-99.99,,,-99.99,,2013-04-23 05:42:00,
2013-04-23 00:52:00,15.0,10.0,-100.00,NW,305,2.0,2.0,81,-99.99,,,-99.99,,2013-04-23 05:52:00,
2013-04-23 01:01:00,15.0,10.0,-100.00,West,280,2.0,4.0,82,-99.99,,,-99.99,,2013-04-23 06:01:00,
2013-04-23 01:12:00,15.0,10.0,-100.00,West,280,2.0,4.0,82,-99.99,,,-99.99,,2013-04-23 06:12:00,
2013-04-23 01:21:00,15.0,11.0,-100.00,West,280,1.0,2.0,83,-99.99,,,-99.99,,2013-04-23 06:21:00,
2013-04-23 01:33:00,16.0,12.0,-100.00,SW,225,3.0,3.0,83,-99.99,,,-99.99,,2013-04-23 06:33:00,
2013-04-23 01:42:00,16.0,12.0,-100.00,SW,225,3.0,3.0,83,-99.99,,,-99.99,,2013-04-23 06:42:00,
2013-04-23 01:52:00,16.0,11.0,-100.00,SW,230,2.0,2.0,83,-99.99,,,-99.99,,2013-04-23 06:52:00,
2013-04-23 02:02:00,15.0,11.0,-100.00,SW,230,4.0,4.0,83,-99.99,,,-99.99,,2013-04-23 07:02:00,
2013-04-23 02:11:00,15.0,11.0,-100.00,SW,230,4.0,4.0,83,-99.99,,,-99.99,,2013-04-23 07:11:00,
2013-04-23 02:21:00,14.0,10.0,-100.00,SW,230,4.0,4.0,83,-99.99,,,-99.99,,2013-04-23 07:21:00,
2013-04-23 02:32:00,15.0,11.0,-100.00,SW,225,6.0,6.0,83,-99.99,,,-99.99,,2013-04-23 07:32:00,
2013-04-23 02:42:00,15.0,11.0,-100.00,SW,225,6.0,6.0,83,-99.99,,,-99.99,,2013-04-23 07:42:00,
2013-04-23 02:52:00,15.0,11.0,-100.00,SW,225,4.0,6.0,83,-99.99,,,-99.99,,2013-04-23 07:52:00,
2013-04-23 03:02:00,14.0,10.0,-100.00,SW,225,5.0,5.0,83,-99.99,,,-99.99,,2013-04-23 08:02:00,
2013-04-23 03:11:00,14.0,10.0,-100.00,SW,225,5.0,5.0,83,-99.99,,,-99.99,,2013-04-23 08:11:00,
2013-04-23 03:21:00,13.0,9.0,-100.00,SW,225,6.0,6.0,83,-99.99,,,-99.99,,2013-04-23 08:21:00,
2013-04-23 03:32:00,14.0,10.0,-100.00,SW,225,6.0,7.0,83,-99.99,,,-99.99,,2013-04-23 08:32:00,
2013-04-23 03:42:00,14.0,10.0,-100.00,SW,225,6.0,7.0,83,-99.99,,,-99.99,,2013-04-23 08:42:00,
2013-04-23 03:52:00,13.0,9.0,-100.00,SW,230,7.0,8.0,82,-99.99,,,-99.99,,2013-04-23 08:52:00,
2013-04-23 04:01:00,14.0,10.0,-100.00,SW,230,8.0,9.0,81,-99.99,,,-99.99,,2013-04-23 09:01:00,
2013-04-23 04:11:00,14.0,10.0,-100.00,SW,230,8.0,9.0,81,-99.99,,,-99.99,,2013-04-23 09:11:00,
2013-04-23 04:21:00,14.0,9.0,-100.00,SW,235,8.0,9.0,80,-99.99,,,-99.99,,2013-04-23 09:21:00,
2013-04-23 04:33:00,15.0,10.0,-100.00,WSW,255,10.0,11.0,80,-99.99,,,-99.99,,2013-04-23 09:33:00,
2013-04-23 04:43:00,15.0,10.0,-100.00,WSW,255,10.0,11.0,80,-99.99,,,-99.99,,2013-04-23 09:43:00,
2013-04-23 04:52:00,15.0,10.0,-100.00,WSW,250,10.0,11.0,80,-99.99,,,-99.99,,2013-04-23 09:52:00,
2013-04-23 05:02:00,16.0,11.0,-100.00,WSW,250,10.0,12.0,80,-99.99,,,-99.99,,2013-04-23 10:02:00,
2013-04-23 05:13:00,16.0,11.0,-100.00,WSW,250,10.0,12.0,80,-99.99,,,-99.99,,2013-04-23 10:13:00,
2013-04-23 05:22:00,15.0,10.0,-100.00,WSW,240,9.0,12.0,80,-99.99,,,-99.99,,2013-04-23 10:22:00,
2013-04-23 05:33:00,14.0,10.0,-100.00,SW,225,7.0,9.0,81,-99.99,,,-99.99,,2013-04-23 10:33:00,
2013-04-23 05:42:00,14.0,10.0,-100.00,SW,225,7.0,9.0,81,-99.99,,,-99.99,,2013-04-23 10:42:00,
2013-04-23 05:52:00,14.0,10.0,-100.00,SW,225,7.0,8.0,81,-99.99,,,-99.99,,2013-04-23 10:52:00,
2013-04-23 06:03:00,15.0,10.0,-100.00,SW,230,9.0,11.0,79,-99.99,,,-99.99,,2013-04-23 11:03:00,
2013-04-23 06:12:00,15.0,10.0,-100.00,SW,230,9.0,11.0,79,-99.99,,,-99.99,,2013-04-23 11:12:00,
2013-04-23 06:21:00,15.0,10.0,-100.00,SW,230,9.0,10.0,79,-99.99,,,-99.99,,2013-04-23 11:21:00,
2013-04-23 06:32:00,15.0,10.0,-100.00,SW,230,7.0,9.0,79,-99.99,,,-99.99,,2013-04-23 11:32:00,
2013-04-23 06:42:00,15.0,10.0,-100.00,SW,230,7.0,9.0,79,-99.99,,,-99.99,,2013-04-23 11:42:00,
2013-04-23 06:52:00,15.0,10.0,-100.00,SW,230,7.0,11.0,79,-99.99,,,-99.99,,2013-04-23 11:52:00,
2013-04-23 07:02:00,16.0,11.0,-100.00,SW,235,8.0,12.0,79,-99.99,,,-99.99,,2013-04-23 12:02:00,
2013-04-23 07:12:00,16.0,11.0,-100.00,SW,235,8.0,12.0,79,-99.99,,,-99.99,,2013-04-23 12:12:00,
2013-04-23 07:22:00,16.0,11.0,-100.00,WSW,240,9.0,12.0,79,-99.99,,,-99.99,,2013-04-23 12:22:00,
2013-04-23 07:32:00,17.0,12.0,-100.00,WSW,240,10.0,12.0,77,-99.99,,,-99.99,,2013-04-23 12:32:00,
2013-04-23 07:42:00,17.0,12.0,-100.00,WSW,240,10.0,12.0,77,-99.99,,,-99.99,,2013-04-23 12:42:00,
2013-04-23 07:52:00,18.0,12.0,-100.00,WSW,240,10.0,12.0,75,-99.99,,,-99.99,,2013-04-23 12:52:00,
2013-04-23 08:01:00,19.0,12.0,-100.00,WSW,240,11.0,13.0,74,-99.99,,,-99.99,,2013-04-23 13:01:00,
2013-04-23 08:11:00,19.0,12.0,-100.00,WSW,240,11.0,13.0,74,-99.99,,,-99.99,,2013-04-23 13:11:00,
2013-04-23 08:21:00,19.0,12.0,-100.00,SW,230,11.0,13.0,74,-99.99,,,-99.99,,2013-04-23 13:21:00,
2013-04-23 08:32:00,19.0,13.0,-100.00,SW,230,9.0,10.0,75,-99.99,,,-99.99,,2013-04-23 13:32:00,
2013-04-23 08:41:00,19.0,13.0,-100.00,SW,230,9.0,10.0,75,-99.99,,,-99.99,,2013-04-23 13:41:00,
2013-04-23 08:52:00,20.0,13.0,-100.00,SW,225,6.0,9.0,75,-99.99,,,-99.99,,2013-04-23 13:52:00,
2013-04-23 09:02:00,22.0,15.0,-100.00,SW,225,6.0,9.0,73,-99.99,,,-99.99,,2013-04-23 14:02:00,
2013-04-23 09:11:00,22.0,15.0,-100.00,SW,225,6.0,9.0,73,-99.99,,,-99.99,,2013-04-23 14:11:00,
2013-04-23 09:22:00,22.0,15.0,-100.00,SSW,205,6.0,7.0,73,-99.99,,,-99.99,,2013-04-23 14:22:00,
2013-04-23 09:32:00,24.0,17.0,-100.00,SW,220,7.0,10.0,72,-99.99,,,-99.99,,2013-04-23 14:32:00,
2013-04-23 09:42:00,24.0,17.0,-100.00,SW,220,7.0,10.0,72,-99.99,,,-99.99,,2013-04-23 14:42:00,
2013-04-23 09:52:00,25.0,17.0,-100.00,SW,230,8.0,9.0,70,-99.99,,,-99.99,,2013-04-23 14:52:00,
2013-04-23 10:01:00,25.0,17.0,-100.00,SW,230,8.0,9.0,70,-99.99,,,-99.99,,2013-04-23 15:01:00,
2013-04-23 10:12:00,26.0,17.0,-100.00,SW,220,9.0,12.0,66,-99.99,,,-99.99,,2013-04-23 15:12:00,
2013-04-23 10:21:00,27.0,18.0,-100.00,SSW,200,9.0,10.0,67,-99.99,,,-99.99,,2013-04-23 15:21:00,
2013-04-23 10:32:00,28.0,17.0,-100.00,SW,215,9.0,11.0,63,-99.99,,,-99.99,,2013-04-23 15:32:00,
2013-04-23 10:42:00,28.0,17.0,-100.00,SW,215,9.0,11.0,63,-99.99,,,-99.99,,2013-04-23 15:42:00,
2013-04-23 10:53:00,29.0,17.0,-100.00,SW,225,10.0,12.0,60,-99.99,,,-99.99,,2013-04-23 15:53:00,
2013-04-23 11:03:00,30.0,17.0,-100.00,SSW,210,11.0,12.0,58,-99.99,,,-99.99,,2013-04-23 16:03:00,
2013-04-23 11:12:00,30.0,17.0,-100.00,SSW,210,11.0,12.0,58,-99.99,,,-99.99,,2013-04-23 16:12:00,
2013-04-23 11:23:00,30.0,17.0,-100.00,SSW,195,11.0,13.0,58,-99.99,,,-99.99,,2013-04-23 16:23:00,
2013-04-23 11:34:00,31.0,16.0,-100.00,SW,215,11.0,14.0,52,-99.99,,,-99.99,,2013-04-23 16:34:00,
2013-04-23 11:43:00,31.0,16.0,-100.00,SW,215,11.0,14.0,52,-99.99,,,-99.99,,2013-04-23 16:43:00,
2013-04-23 11:52:00,32.0,17.0,-100.00,South,190,11.0,14.0,52,-99.99,,,-99.99,,2013-04-23 16:52:00,
2013-04-23 12:02:00,33.0,16.0,-100.00,SW,215,12.0,15.0,49,-99.99,,,-99.99,,2013-04-23 17:02:00,
2013-04-23 12:11:00,33.0,16.0,-100.00,SW,215,12.0,15.0,49,-99.99,,,-99.99,,2013-04-23 17:11:00,
2013-04-23 12:22:00,34.0,17.0,-100.00,SW,225,11.0,15.0,49,-99.99,,,-99.99,,2013-04-23 17:22:00,
2013-04-23 12:32:00,34.0,17.0,-100.00,SW,230,12.0,16.0,49,-99.99,,,-99.99,,2013-04-23 17:32:00,
2013-04-23 12:42:00,34.0,17.0,-100.00,SW,230,12.0,16.0,49,-99.99,,,-99.99,,2013-04-23 17:42:00,
2013-04-23 12:53:00,34.0,18.0,-100.00,SW,235,11.0,16.0,49,-99.99,,,-99.99,,2013-04-23 17:53:00,
2013-04-23 13:02:00,35.0,18.0,-100.00,WSW,245,11.0,16.0,49,-99.99,,,-99.99,,2013-04-23 18:02:00,
2013-04-23 13:12:00,35.0,18.0,-100.00,WSW,245,11.0,16.0,49,-99.99,,,-99.99,,2013-04-23 18:12:00,
2013-04-23 13:22:00,36.0,18.0,-100.00,WSW,245,10.0,15.0,47,-99.99,,,-99.99,,2013-04-23 18:22:00,
2013-04-23 13:32:00,38.0,18.0,-100.00,WSW,250,12.0,17.0,44,-99.99,,,-99.99,,2013-04-23 18:32:00,
2013-04-23 13:42:00,38.0,18.0,-100.00,WSW,250,12.0,17.0,44,-99.99,,,-99.99,,2013-04-23 18:42:00,
2013-04-23 13:52:00,37.0,18.0,-100.00,SW,235,14.0,18.0,45,-99.99,,,-99.99,,2013-04-23 18:52:00,
2013-04-23 14:02:00,38.0,19.0,-100.00,WSW,250,13.0,18.0,44,-99.99,,,-99.99,,2013-04-23 19:02:00,
2013-04-23 14:11:00,38.0,19.0,-100.00,WSW,250,13.0,18.0,44,-99.99,,,-99.99,,2013-04-23 19:11:00,
2013-04-23 14:22:00,39.0,19.0,-100.00,WSW,250,14.0,19.0,43,-99.99,,,-99.99,,2013-04-23 19:22:00,
2013-04-23 14:32:00,40.0,18.0,-100.00,WSW,250,16.0,21.0,40,-99.99,,,-99.99,,2013-04-23 19:32:00,
2013-04-23 14:42:00,40.0,18.0,-100.00,WSW,250,16.0,21.0,40,-99.99,,,-99.99,,2013-04-23 19:42:00,
2013-04-23 14:52:00,40.0,18.0,-100.00,West,260,15.0,21.0,40,-99.99,,,-99.99,,2013-04-23 19:52:00,
2013-04-23 15:02:00,40.0,17.0,-100.00,West,260,16.0,21.0,39,-99.99,,,-99.99,,2013-04-23 20:02:00,
2013-04-23 15:11:00,40.0,17.0,-100.00,West,260,16.0,21.0,39,-99.99,,,-99.99,,2013-04-23 20:11:00,
2013-04-23 15:22:00,41.0,18.0,-100.00,West,260,14.0,21.0,39,-99.99,,,-99.99,,2013-04-23 20:22:00,
2013-04-23 15:32:00,41.0,18.0,-100.00,West,260,18.0,22.0,38,-99.99,,,-99.99,,2013-04-23 20:32:00,
2013-04-23 15:42:00,41.0,18.0,-100.00,West,260,18.0,22.0,38,-99.99,,,-99.99,,2013-04-23 20:42:00,
2013-04-23 15:52:00,41.0,18.0,-100.00,West,260,16.0,24.0,38,-99.99,,,-99.99,,2013-04-23 20:52:00,
2013-04-23 16:02:00,41.0,17.0,-100.00,West,265,18.0,21.0,37,-99.99,,,-99.99,,2013-04-23 21:02:00,
2013-04-23 16:12:00,41.0,17.0,-100.00,West,265,18.0,21.0,37,-99.99,,,-99.99,,2013-04-23 21:12:00,
2013-04-23 16:21:00,41.0,17.0,-100.00,WSW,255,15.0,22.0,36,-99.99,,,-99.99,,2013-04-23 21:21:00,
2013-04-23 16:33:00,42.0,17.0,-100.00,WSW,255,17.0,24.0,36,-99.99,,,-99.99,,2013-04-23 21:33:00,
2013-04-23 16:43:00,42.0,17.0,-100.00,WSW,255,17.0,24.0,36,-99.99,,,-99.99,,2013-04-23 21:43:00,
2013-04-23 16:52:00,42.0,17.0,-100.00,WSW,250,15.0,23.0,36,-99.99,,,-99.99,,2013-04-23 21:52:00,
2013-04-23 17:03:00,42.0,18.0,-100.00,WSW,255,14.0,21.0,36,-99.99,,,-99.99,,2013-04-23 22:03:00,
2013-04-23 17:12:00,42.0,18.0,-100.00,WSW,255,14.0,21.0,36,-99.99,,,-99.99,,2013-04-23 22:12:00,
2013-04-23 17:22:00,42.0,17.0,-100.00,West,260,17.0,24.0,36,-99.99,,,-99.99,,2013-04-23 22:22:00,
2013-04-23 17:33:00,43.0,18.0,-100.00,WSW,255,15.0,19.0,35,-99.99,,,-99.99,,2013-04-23 22:33:00,
2013-04-23 17:42:00,43.0,18.0,-100.00,WSW,255,15.0,19.0,35,-99.99,,,-99.99,,2013-04-23 22:42:00,
2013-04-23 17:52:00,42.0,17.0,-100.00,WSW,255,17.0,21.0,35,-99.99,,,-99.99,,2013-04-23 22:52:00,
2013-04-23 18:03:00,42.0,17.0,-100.00,WSW,245,15.0,19.0,35,-99.99,,,-99.99,,2013-04-23 23:03:00,
2013-04-23 18:12:00,42.0,17.0,-100.00,WSW,245,15.0,19.0,35,-99.99,,,-99.99,,2013-04-23 23:12:00,
2013-04-23 18:22:00,43.0,17.0,-100.00,WSW,255,12.0,19.0,35,-99.99,,,-99.99,,2013-04-23 23:22:00,
2013-04-23 18:32:00,43.0,17.0,-100.00,WSW,240,9.0,15.0,35,-99.99,,,-99.99,,2013-04-23 23:32:00,
2013-04-23 18:42:00,43.0,17.0,-100.00,WSW,240,9.0,15.0,35,-99.99,,,-99.99,,2013-04-23 23:42:00,
2013-04-23 18:52:00,42.0,17.0,-100.00,West,260,12.0,16.0,35,-99.99,,,-99.99,,2013-04-23 23:52:00,
2013-04-23 19:01:00,42.0,16.0,-100.00,WSW,255,14.0,16.0,34,-99.99,,,-99.99,,2013-04-24 00:01:00,
2013-04-23 19:11:00,42.0,16.0,-100.00,WSW,255,14.0,16.0,34,-99.99,,,-99.99,,2013-04-24 00:11:00,
2013-04-23 19:22:00,42.0,16.0,-100.00,WSW,255,14.0,16.0,34,-99.99,,,-99.99,,2013-04-24 00:22:00,
2013-04-23 22:09:00,34.0,16.0,-100.00,South,190,7.0,7.0,47,-99.99,,,-99.99,,2013-04-24 03:09:00,
2013-04-23 22:17:00,34.0,16.0,-100.00,South,190,7.0,7.0,47,-99.99,,,-99.99,,2013-04-24 03:17:00,
2013-04-23 22:29:00,34.0,16.0,-100.00,South,180,7.0,7.0,47,-99.99,,,-99.99,,2013-04-24 03:29:00,
2013-04-23 22:40:00,32.0,16.0,-100.00,SSE,160,7.0,8.0,51,-99.99,,,-99.99,,2013-04-24 03:40:00,
2013-04-23 22:49:00,32.0,16.0,-100.00,SSE,160,7.0,8.0,51,-99.99,,,-99.99,,2013-04-24 03:49:00,
2013-04-23 22:56:00,32.0,16.0,-100.00,South,175,7.0,8.0,51,-99.99,,,-99.99,,2013-04-24 03:56:00,
2013-04-23 23:03:00,32.0,16.0,-100.00,South,170,9.0,9.0,51,-99.99,,,-99.99,,2013-04-24 04:03:00,
2013-04-23 23:12:00,32.0,16.0,-100.00,South,170,9.0,9.0,51,-99.99,,,-99.99,,2013-04-24 04:12:00,
2013-04-23 23:23:00,32.0,16.0,-100.00,South,170,9.0,10.0,51,-99.99,,,-99.99,,2013-04-24 04:23:00,
2013-04-23 23:33:00,32.0,16.0,-100.00,SSE,165,10.0,11.0,51,-99.99,,,-99.99,,2013-04-24 04:33:00,
2013-04-23 23:43:00,32.0,16.0,-100.00,SSE,165,10.0,11.0,51,-99.99,,,-99.99,,2013-04-24 04:43:00,
2013-04-23 23:52:00,31.0,16.0,-100.00,SSE,165,10.0,12.0,53,-99.99,,,-99.99,,2013-04-24 04:52:00,